createdAt,value
2022-12-24T00:00:58.630Z,39.27
2022-12-24T00:03:29.753Z,39.88
2022-12-24T00:06:00.332Z,39.24
2022-12-24T00:08:30.153Z,39.54
2022-12-24T00:11:00.101Z,39.52
2022-12-24T00:13:32.052Z,39.49
2022-12-24T00:16:02.948Z,39.39
2022-12-24T00:18:33.580Z,39.51
2022-12-24T00:21:04.450Z,39.50
2022-12-24T00:23:34.909Z,39.96
2022-12-24T00:26:05.031Z,39.64
2022-12-24T00:28:36.859Z,39.72
2022-12-24T00:31:13.790Z,40.33
2022-12-24T00:33:44.550Z,40.10
2022-12-24T00:36:14.439Z,40.14
2022-12-24T00:38:45.554Z,40.08
2022-12-24T00:41:26.621Z,39.94
2022-12-24T00:44:01.527Z,39.79
2022-12-24T00:46:35.290Z,40.07
2022-12-24T00:49:07.284Z,39.98
2022-12-24T00:51:38.249Z,39.97
2022-12-24T00:54:09.901Z,40.26
2022-12-24T00:56:39.671Z,40.19
2022-12-24T00:59:12.049Z,40.39
2022-12-24T01:01:42.595Z,40.50
2022-12-24T01:04:29.265Z,40.24
2022-12-24T01:06:59.390Z,40.11
2022-12-24T01:09:29.646Z,40.28
2022-12-24T01:11:59.955Z,40.58
2022-12-24T01:14:32.125Z,40.40
2022-12-24T01:17:01.859Z,40.70
2022-12-24T01:19:31.566Z,40.36
2022-12-24T01:22:01.863Z,40.81
2022-12-24T01:24:32.177Z,40.53
2022-12-24T01:27:02.490Z,40.40
2022-12-24T01:29:34.491Z,40.94
2022-12-24T01:32:04.467Z,40.85
2022-12-24T01:34:34.504Z,40.41
2022-12-24T01:37:04.756Z,40.64
2022-12-24T01:39:35.210Z,40.71
2022-12-24T01:42:22.263Z,40.44
2022-12-24T01:44:56.819Z,40.78
2022-12-24T01:47:32.413Z,41.00
2022-12-24T01:50:15.803Z,40.77
2022-12-24T01:52:46.599Z,41.05
2022-12-24T01:55:20.593Z,40.72
2022-12-24T01:57:57.372Z,41.13
2022-12-24T02:00:29.992Z,41.30
2022-12-24T02:03:00.733Z,41.13
2022-12-24T02:05:38.775Z,41.38
2022-12-24T02:08:11.575Z,40.89
2022-12-24T02:10:42.002Z,41.06
2022-12-24T02:13:13.695Z,41.01
2022-12-24T02:16:05.197Z,40.96
2022-12-24T02:18:49.127Z,41.13
2022-12-24T02:21:53.854Z,41.47
2022-12-24T02:25:03.603Z,41.61
2022-12-24T02:27:56.920Z,41.50
2022-12-24T02:30:37.056Z,41.34
2022-12-24T02:33:26.257Z,41.63
2022-12-24T02:36:06.264Z,41.25
2022-12-24T02:38:44.438Z,41.69
2022-12-24T02:41:22.948Z,41.23
2022-12-24T02:43:55.831Z,41.37
2022-12-24T02:46:32.921Z,42.05
2022-12-24T02:49:04.414Z,41.42
2022-12-24T02:51:35.423Z,41.58
2022-12-24T02:54:05.436Z,41.55
2022-12-24T02:56:54.018Z,41.77
2022-12-24T02:59:52.218Z,41.47
2022-12-24T03:02:38.913Z,41.82
2022-12-24T03:05:25.400Z,41.88
2022-12-24T03:08:06.302Z,41.93
2022-12-24T03:10:49.214Z,41.80
2022-12-24T03:13:22.511Z,41.63
2022-12-24T03:15:54.502Z,41.87
2022-12-24T03:18:29.450Z,42.18
2022-12-24T03:21:08.179Z,41.94
2022-12-24T03:23:38.557Z,41.80
2022-12-24T03:26:13.500Z,42.28
2022-12-24T03:28:45.930Z,42.22
2022-12-24T03:31:17.527Z,42.24
2022-12-24T03:33:50.514Z,42.09
2022-12-24T03:36:20.295Z,41.90
2022-12-24T03:38:50.402Z,42.03
2022-12-24T03:41:20.747Z,42.11
2022-12-24T03:43:51.083Z,42.20
2022-12-24T03:46:21.368Z,42.39
2022-12-24T03:48:53.493Z,42.40
2022-12-24T03:51:25.859Z,42.58
2022-12-24T03:53:57.611Z,42.51
2022-12-24T03:56:29.070Z,42.47
2022-12-24T03:58:59.375Z,42.23
2022-12-24T04:01:29.398Z,42.11
2022-12-24T04:04:01.210Z,42.52
2022-12-24T04:06:31.482Z,42.44
2022-12-24T04:09:05.311Z,42.81
2022-12-24T04:11:35.974Z,42.25
2022-12-24T04:14:06.259Z,42.43
2022-12-24T04:16:36.675Z,42.88
2022-12-24T04:19:08.191Z,42.64
2022-12-24T04:21:38.442Z,42.90
2022-12-24T04:24:08.913Z,42.86
2022-12-24T04:26:38.856Z,42.46
2022-12-24T04:29:10.042Z,42.51
2022-12-24T04:31:40.583Z,42.40
2022-12-24T04:34:12.360Z,42.82
2022-12-24T04:36:42.238Z,43.01
2022-12-24T04:39:11.941Z,42.95
2022-12-24T04:41:42.218Z,42.52
2022-12-24T04:44:13.226Z,43.06
2022-12-24T04:46:43.649Z,43.02
2022-12-24T04:49:15.534Z,43.00
2022-12-24T04:51:45.623Z,42.56
2022-12-24T04:54:16.215Z,43.00
2022-12-24T04:56:46.555Z,43.29
2022-12-24T04:59:16.751Z,43.21
2022-12-24T05:01:47.628Z,42.71
2022-12-24T05:04:19.737Z,43.28
2022-12-24T05:06:50.115Z,43.06
2022-12-24T05:09:20.206Z,43.25
2022-12-24T05:11:50.501Z,43.11
2022-12-24T05:14:20.969Z,42.81
2022-12-24T05:16:51.328Z,43.54
2022-12-24T05:19:22.827Z,43.01
2022-12-24T05:22:14.952Z,43.07
2022-12-24T05:25:01.718Z,43.27
2022-12-24T05:27:32.788Z,43.35
2022-12-24T05:30:03.113Z,43.15
2022-12-24T05:32:32.860Z,42.96
2022-12-24T05:35:04.533Z,43.39
2022-12-24T05:37:34.823Z,43.50
2022-12-24T05:40:04.997Z,43.38
2022-12-24T05:42:35.620Z,43.71
2022-12-24T05:45:06.359Z,43.47
2022-12-24T05:47:42.851Z,43.60
2022-12-24T05:50:16.601Z,43.75
2022-12-24T05:52:46.573Z,43.51
2022-12-24T05:55:17.085Z,43.61
2022-12-24T05:57:47.890Z,43.79
2022-12-24T06:00:19.168Z,43.45
2022-12-24T06:02:49.612Z,43.46
2022-12-24T06:05:21.706Z,44.06
2022-12-24T06:07:52.007Z,43.68
2022-12-24T06:10:21.920Z,43.41
2022-12-24T06:12:52.349Z,44.05
2022-12-24T06:15:24.339Z,44.14
2022-12-24T06:17:54.518Z,44.48
2022-12-24T06:20:27.143Z,44.60
2022-12-24T06:22:57.079Z,44.61
2022-12-24T06:25:27.462Z,44.81
2022-12-24T06:27:57.494Z,44.81
2022-12-24T06:30:27.992Z,44.66
2022-12-24T06:32:58.207Z,44.79
2022-12-24T06:35:30.609Z,44.85
2022-12-24T06:38:00.872Z,45.00
2022-12-24T06:40:31.870Z,44.97
2022-12-24T06:43:02.130Z,44.65
2022-12-24T06:45:32.608Z,44.79
2022-12-24T06:48:03.659Z,44.45
2022-12-24T06:50:36.917Z,44.43
2022-12-24T06:53:07.777Z,44.36
2022-12-24T06:55:38.464Z,44.08
2022-12-24T06:58:09.035Z,44.06
2022-12-24T07:00:39.490Z,43.76
2022-12-24T07:03:09.770Z,43.76
2022-12-24T07:05:43.755Z,44.10
2022-12-24T07:08:13.752Z,43.85
2022-12-24T07:10:46.486Z,43.71
2022-12-24T07:13:19.516Z,44.08
2022-12-24T07:15:49.955Z,44.37
2022-12-24T07:18:20.304Z,44.30
2022-12-24T07:20:52.718Z,44.65
2022-12-24T07:23:22.534Z,44.22
2022-12-24T07:25:52.980Z,43.92
2022-12-24T07:28:27.737Z,43.99
2022-12-24T07:30:58.869Z,43.96
2022-12-24T07:33:30.025Z,44.11
2022-12-24T07:36:08.773Z,43.54
2022-12-24T07:38:40.239Z,43.93
2022-12-24T07:41:10.446Z,43.55
2022-12-24T07:43:40.181Z,43.94
2022-12-24T07:46:10.754Z,43.69
2022-12-24T07:48:41.563Z,43.69
2022-12-24T07:51:13.366Z,43.58
2022-12-24T07:53:48.126Z,43.50
2022-12-24T07:56:19.019Z,44.18
2022-12-24T07:58:48.996Z,43.90
2022-12-24T08:01:18.992Z,43.60
2022-12-24T08:03:51.765Z,44.15
2022-12-24T08:06:24.207Z,44.44
2022-12-24T08:08:54.007Z,45.09
2022-12-24T08:11:24.319Z,45.01
2022-12-24T08:13:54.107Z,45.42
2022-12-24T08:16:24.638Z,45.42
2022-12-24T08:18:54.722Z,45.72
2022-12-24T08:21:26.600Z,45.28
2022-12-24T08:23:56.280Z,44.91
2022-12-24T08:26:26.630Z,45.55
2022-12-24T08:28:56.909Z,45.66
2022-12-24T08:31:27.496Z,46.29
2022-12-24T08:33:57.352Z,45.88
2022-12-24T08:36:28.468Z,45.54
2022-12-24T08:38:58.729Z,45.11
2022-12-24T08:41:29.108Z,44.74
2022-12-24T08:43:59.595Z,44.27
2022-12-24T08:46:30.427Z,43.99
2022-12-24T08:49:00.883Z,43.59
2022-12-24T08:51:33.010Z,43.52
2022-12-24T08:54:03.332Z,43.25
2022-12-24T08:56:34.933Z,43.24
2022-12-24T08:59:05.108Z,43.00
2022-12-24T09:01:35.778Z,42.92
2022-12-24T09:04:05.945Z,42.62
2022-12-24T09:06:38.525Z,42.85
2022-12-24T09:09:09.773Z,42.76
2022-12-24T09:11:40.191Z,43.02
2022-12-24T09:14:10.478Z,42.77
2022-12-24T09:16:41.107Z,42.68
2022-12-24T09:19:10.780Z,42.89
2022-12-24T09:21:42.771Z,42.64
2022-12-24T09:24:13.259Z,42.59
2022-12-24T09:26:43.934Z,42.81
2022-12-24T09:29:14.707Z,42.65
2022-12-24T09:31:45.164Z,42.86
2022-12-24T09:34:14.980Z,42.84
2022-12-24T09:36:47.038Z,42.89
2022-12-24T09:39:17.734Z,43.05
2022-12-24T09:42:02.205Z,42.57
2022-12-24T09:44:45.456Z,43.05
2022-12-24T09:47:28.991Z,43.11
2022-12-24T09:50:04.222Z,43.08
2022-12-24T09:52:41.395Z,43.07
2022-12-24T09:55:30.811Z,43.09
2022-12-24T09:58:04.780Z,43.06
2022-12-24T10:00:46.034Z,43.01
2022-12-24T10:03:20.615Z,43.07
2022-12-24T10:06:03.540Z,42.87
2022-12-24T10:08:51.193Z,43.17
2022-12-24T10:11:32.452Z,42.86
2022-12-24T10:14:29.260Z,43.06
2022-12-24T10:17:20.238Z,42.68
2022-12-24T10:20:02.327Z,43.03
2022-12-24T10:22:44.377Z,42.97
2022-12-24T10:25:25.405Z,42.98
2022-12-24T10:28:01.258Z,43.00
2022-12-24T10:30:32.430Z,43.30
2022-12-24T10:33:04.017Z,43.38
2022-12-24T10:35:46.482Z,43.00
2022-12-24T10:38:17.007Z,43.19
2022-12-24T10:40:52.874Z,43.27
2022-12-24T10:43:27.260Z,43.28
2022-12-24T10:46:01.323Z,43.21
2022-12-24T10:48:42.307Z,43.39
2022-12-24T10:51:23.532Z,43.30
2022-12-24T10:54:02.671Z,43.50
2022-12-24T10:56:34.225Z,43.35
2022-12-24T10:59:04.545Z,43.41
2022-12-24T11:01:49.839Z,43.08
2022-12-24T11:04:23.932Z,43.42
2022-12-24T11:07:00.256Z,43.41
2022-12-24T11:09:34.527Z,43.18
2022-12-24T11:12:18.502Z,43.21
2022-12-24T11:14:48.862Z,43.18
2022-12-24T11:17:25.647Z,43.41
2022-12-24T11:19:55.888Z,43.13
2022-12-24T11:22:30.655Z,43.16
2022-12-24T11:25:21.432Z,43.14
2022-12-24T11:27:54.741Z,42.96
2022-12-24T11:30:35.778Z,43.49
2022-12-24T11:33:25.630Z,43.62
2022-12-24T11:36:03.347Z,43.72
2022-12-24T11:38:36.221Z,43.36
2022-12-24T11:41:11.837Z,43.44
2022-12-24T11:43:48.288Z,43.66
2022-12-24T11:46:24.078Z,43.91
2022-12-24T11:49:17.738Z,43.33
2022-12-24T11:52:25.534Z,43.80
2022-12-24T11:55:19.495Z,43.90
2022-12-24T11:58:00.850Z,43.97
2022-12-24T12:00:33.495Z,43.82
2022-12-24T12:03:13.053Z,43.87
2022-12-24T12:05:43.512Z,43.81
2022-12-24T12:08:22.786Z,44.22
2022-12-24T12:10:57.062Z,43.84
2022-12-24T12:13:35.249Z,44.21
2022-12-24T12:16:20.949Z,43.79
2022-12-24T12:19:01.888Z,44.25
2022-12-24T12:21:44.031Z,44.27
2022-12-24T12:24:28.261Z,44.57
2022-12-24T12:27:18.204Z,43.99
2022-12-24T12:29:56.696Z,44.18
2022-12-24T12:32:39.766Z,44.17
2022-12-24T12:35:28.505Z,44.42
2022-12-24T12:38:03.625Z,44.02
2022-12-24T12:41:03.732Z,44.61
2022-12-24T12:43:54.912Z,44.47
2022-12-24T12:46:37.660Z,44.31
2022-12-24T12:49:30.277Z,44.53
2022-12-24T12:52:15.772Z,44.17
2022-12-24T12:55:23.892Z,44.21
2022-12-24T12:58:01.250Z,44.68
2022-12-24T13:00:38.882Z,44.95
2022-12-24T13:04:05.374Z,44.33
2022-12-24T13:07:35.848Z,44.94
2022-12-24T13:10:51.019Z,44.82
2022-12-24T13:14:16.572Z,44.34
2022-12-24T13:17:41.289Z,44.74
2022-12-24T13:20:26.632Z,44.92
2022-12-24T13:23:04.651Z,44.71
2022-12-24T13:25:40.614Z,44.32
2022-12-24T13:28:39.117Z,44.75
2022-12-24T13:31:31.419Z,44.71
2022-12-24T13:34:06.885Z,44.43
2022-12-24T13:37:23.554Z,44.55
2022-12-24T13:40:24.574Z,44.64
2022-12-24T13:43:12.871Z,44.69
2022-12-24T13:45:52.713Z,45.00
2022-12-24T13:48:36.845Z,44.66
2022-12-24T13:51:27.718Z,45.03
2022-12-24T13:54:02.730Z,44.99
2022-12-24T13:56:39.064Z,45.27
2022-12-24T13:59:39.256Z,45.25
2022-12-24T14:02:23.538Z,45.27
2022-12-24T14:04:55.344Z,45.11
2022-12-24T14:07:25.784Z,44.95
2022-12-24T14:09:56.333Z,44.85
2022-12-24T14:12:54.473Z,44.87
2022-12-24T14:16:05.097Z,45.00
2022-12-24T14:18:41.146Z,45.38
2022-12-24T14:21:23.048Z,45.26
2022-12-24T14:23:58.464Z,45.33
2022-12-24T14:26:34.428Z,45.12
2022-12-24T14:29:24.449Z,45.27
2022-12-24T14:31:56.950Z,45.25
2022-12-24T14:34:28.512Z,45.62
2022-12-24T14:37:02.457Z,45.24
2022-12-24T14:39:38.457Z,45.10
2022-12-24T14:42:31.411Z,45.19
2022-12-24T14:45:21.421Z,45.37
2022-12-24T14:48:03.707Z,45.33
2022-12-24T14:51:01.907Z,45.27
2022-12-24T14:54:06.270Z,45.44
2022-12-24T14:56:36.682Z,45.04
2022-12-24T14:59:19.212Z,45.09
2022-12-24T15:01:51.604Z,45.50
2022-12-24T15:04:21.502Z,45.41
2022-12-24T15:06:57.945Z,45.16
2022-12-24T15:09:34.327Z,45.04
2022-12-24T15:12:06.039Z,45.70
2022-12-24T15:14:46.249Z,45.47
2022-12-24T15:17:18.649Z,45.49
2022-12-24T15:19:54.232Z,45.29
2022-12-24T15:22:30.501Z,45.48
2022-12-24T15:25:01.046Z,45.73
2022-12-24T15:27:35.202Z,45.18
2022-12-24T15:30:17.934Z,45.55
2022-12-24T15:32:52.572Z,45.71
2022-12-24T15:35:53.370Z,45.67
2022-12-24T15:38:32.241Z,45.69
2022-12-24T15:41:07.528Z,45.71
2022-12-24T15:43:43.212Z,45.56
2022-12-24T15:46:20.952Z,45.68
2022-12-24T15:48:55.201Z,45.70
2022-12-24T15:51:29.779Z,45.37
2022-12-24T15:54:04.421Z,45.15
2022-12-24T15:56:40.187Z,45.26
2022-12-24T15:59:33.090Z,45.28
2022-12-24T16:02:43.322Z,45.89
2022-12-24T16:05:40.749Z,45.41
2022-12-24T16:08:28.455Z,45.40
2022-12-24T16:11:16.856Z,45.44
2022-12-24T16:14:13.361Z,45.54
2022-12-24T16:16:48.975Z,45.72
2022-12-24T16:19:24.583Z,46.01
2022-12-24T16:21:59.814Z,46.12
2022-12-24T16:24:33.325Z,45.91
2022-12-24T16:27:05.447Z,45.96
2022-12-24T16:29:35.809Z,45.97
2022-12-24T16:32:06.286Z,46.02
2022-12-24T16:34:36.932Z,45.57
2022-12-24T16:37:08.595Z,45.78
2022-12-24T16:39:38.687Z,45.54
2022-12-24T16:42:25.461Z,45.58
2022-12-24T16:44:56.333Z,45.84
2022-12-24T16:47:37.163Z,46.10
2022-12-24T16:50:18.070Z,46.00
2022-12-24T16:52:49.951Z,45.81
2022-12-24T16:55:20.543Z,45.80
2022-12-24T16:57:50.319Z,46.06
2022-12-24T17:00:23.538Z,46.37
2022-12-24T17:02:53.838Z,46.16
2022-12-24T17:05:24.597Z,46.39
2022-12-24T17:07:56.755Z,46.31
2022-12-24T17:10:26.977Z,45.91
2022-12-24T17:12:58.193Z,46.05
2022-12-24T17:15:28.215Z,46.33
2022-12-24T17:17:58.657Z,46.46
2022-12-24T17:20:29.140Z,46.29
2022-12-24T17:23:01.964Z,46.48
2022-12-24T17:25:32.275Z,45.89
2022-12-24T17:28:02.372Z,46.29
2022-12-24T17:30:32.418Z,46.42
2022-12-24T17:33:02.036Z,46.35
2022-12-24T17:35:32.335Z,46.53
2022-12-24T17:38:04.297Z,46.00
2022-12-24T17:40:34.765Z,46.54
2022-12-24T17:43:05.169Z,46.67
2022-12-24T17:45:35.708Z,46.50
2022-12-24T17:48:05.742Z,46.52
2022-12-24T17:50:39.338Z,46.29
2022-12-24T17:53:11.636Z,46.14
2022-12-24T17:55:43.689Z,46.44
2022-12-24T17:58:15.666Z,46.39
2022-12-24T18:00:46.017Z,46.08
2022-12-24T18:03:16.933Z,46.64
2022-12-24T18:05:46.921Z,46.14
2022-12-24T18:08:19.378Z,46.32
2022-12-24T18:10:49.927Z,46.61
2022-12-24T18:13:20.246Z,46.57
2022-12-24T18:15:50.544Z,45.98
2022-12-24T18:18:21.033Z,46.47
2022-12-24T18:20:50.604Z,46.27
2022-12-24T18:23:22.143Z,46.18
2022-12-24T18:25:52.405Z,46.02
2022-12-24T18:28:22.138Z,46.35
2022-12-24T18:31:00.920Z,46.55
2022-12-24T18:33:32.069Z,46.27
2022-12-24T18:36:02.560Z,46.52
2022-12-24T18:38:35.509Z,46.42
2022-12-24T18:41:07.959Z,46.13
2022-12-24T18:43:38.499Z,46.35
2022-12-24T18:46:13.049Z,46.48
2022-12-24T18:48:43.981Z,46.34
2022-12-24T18:51:14.328Z,46.46
2022-12-24T18:53:46.832Z,46.15
2022-12-24T18:56:19.974Z,46.13
2022-12-24T18:58:50.505Z,46.82
2022-12-24T19:01:23.627Z,46.48
2022-12-24T19:03:55.116Z,46.40
2022-12-24T19:06:26.541Z,46.53
2022-12-24T19:08:59.625Z,46.42
2022-12-24T19:11:34.643Z,46.30
2022-12-24T19:14:07.831Z,46.53
2022-12-24T19:16:40.583Z,46.22
2022-12-24T19:19:14.280Z,46.66
2022-12-24T19:21:44.600Z,46.79
2022-12-24T19:24:16.619Z,46.59
2022-12-24T19:26:46.859Z,46.80
2022-12-24T19:29:17.629Z,46.67
2022-12-24T19:31:48.053Z,46.22
2022-12-24T19:34:18.430Z,46.39
2022-12-24T19:36:48.559Z,46.36
2022-12-24T19:39:22.333Z,46.67
2022-12-24T19:41:55.865Z,46.52
2022-12-24T19:44:26.458Z,46.48
2022-12-24T19:46:57.043Z,46.87
2022-12-24T19:49:27.471Z,46.22
2022-12-24T19:51:57.334Z,46.61
2022-12-24T19:54:30.411Z,46.63
2022-12-24T19:57:00.734Z,46.70
2022-12-24T19:59:31.170Z,46.75
2022-12-24T20:02:01.556Z,46.50
2022-12-24T20:04:32.103Z,46.53
2022-12-24T20:07:03.759Z,46.32
2022-12-24T20:09:36.064Z,46.67
2022-12-24T20:12:07.168Z,46.54
2022-12-24T20:14:37.504Z,46.82
2022-12-24T20:17:08.063Z,46.41
2022-12-24T20:19:37.895Z,46.87
2022-12-24T20:22:10.471Z,46.77
2022-12-24T20:24:42.688Z,46.56
2022-12-24T20:27:12.438Z,46.57
2022-12-24T20:29:42.794Z,46.66
2022-12-24T20:32:13.580Z,46.41
2022-12-24T20:34:43.251Z,46.32
2022-12-24T20:37:13.096Z,47.06
2022-12-24T20:39:45.076Z,46.68
2022-12-24T20:42:14.889Z,46.51
2022-12-24T20:44:44.858Z,46.62
2022-12-24T20:47:15.513Z,46.29
2022-12-24T20:49:46.399Z,46.87
2022-12-24T20:52:16.299Z,46.47
2022-12-24T20:54:48.849Z,46.75
2022-12-24T20:57:24.700Z,46.75
2022-12-24T20:59:55.661Z,46.51
2022-12-24T21:02:26.322Z,46.32
2022-12-24T21:05:01.853Z,46.77
2022-12-24T21:07:32.978Z,46.69
2022-12-24T21:10:05.453Z,46.88
2022-12-24T21:12:57.290Z,46.88
2022-12-24T21:15:30.614Z,46.69
2022-12-24T21:18:01.597Z,46.34
2022-12-24T21:20:31.771Z,46.31
2022-12-24T21:23:02.441Z,46.53
2022-12-24T21:25:35.341Z,46.33
2022-12-24T21:28:05.771Z,46.56
2022-12-24T21:30:35.736Z,46.68
2022-12-24T21:33:05.936Z,46.44
2022-12-24T21:35:36.472Z,46.75
2022-12-24T21:38:06.799Z,47.01
2022-12-24T21:40:40.750Z,46.62
2022-12-24T21:43:11.208Z,47.00
2022-12-24T21:45:43.832Z,46.73
2022-12-24T21:48:27.012Z,46.50
2022-12-24T21:51:10.163Z,46.58
2022-12-24T21:53:56.767Z,46.39
2022-12-24T21:56:29.183Z,46.77
2022-12-24T21:58:57.665Z,46.53
2022-12-24T22:01:27.664Z,46.66
2022-12-24T22:03:58.071Z,47.10
2022-12-24T22:06:45.755Z,47.16
2022-12-24T22:09:32.715Z,47.16
2022-12-24T22:12:05.183Z,47.10
2022-12-24T22:14:35.337Z,47.13
2022-12-24T22:17:04.995Z,47.22
2022-12-24T22:19:35.401Z,46.82
2022-12-24T22:22:06.029Z,46.76
2022-12-24T22:24:36.754Z,47.23
2022-12-24T22:27:08.696Z,46.73
2022-12-24T22:29:39.103Z,47.15
2022-12-24T22:32:09.979Z,47.32
2022-12-24T22:34:40.338Z,47.20
2022-12-24T22:37:10.211Z,47.55
2022-12-24T22:39:41.205Z,47.46
2022-12-24T22:42:13.199Z,46.88
2022-12-24T22:44:43.225Z,47.48
2022-12-24T22:47:12.866Z,47.46
2022-12-24T22:49:43.287Z,47.46
2022-12-24T22:52:14.404Z,46.98
2022-12-24T22:54:44.501Z,47.63
2022-12-24T22:57:16.213Z,47.54
2022-12-24T22:59:47.603Z,47.02
2022-12-24T23:02:24.017Z,47.37
2022-12-24T23:04:58.808Z,47.05
2022-12-24T23:07:28.965Z,47.53
2022-12-24T23:10:00.222Z,47.54
2022-12-24T23:12:48.711Z,47.23
2022-12-24T23:15:19.275Z,47.07
2022-12-24T23:17:52.048Z,47.08
2022-12-24T23:20:22.072Z,47.25
2022-12-24T23:22:52.449Z,47.61
2022-12-24T23:25:22.480Z,47.14
2022-12-24T23:27:54.650Z,47.23
2022-12-24T23:30:24.807Z,47.06
2022-12-24T23:32:54.586Z,47.62
2022-12-24T23:35:24.805Z,47.10
2022-12-24T23:37:54.533Z,47.39
2022-12-24T23:40:24.847Z,47.61
2022-12-24T23:42:56.827Z,47.70
2022-12-24T23:45:28.463Z,47.67
2022-12-24T23:47:58.816Z,47.33
2022-12-24T23:50:28.720Z,47.39
2022-12-24T23:52:59.006Z,47.72
2022-12-24T23:55:30.321Z,47.48
2022-12-24T23:58:02.701Z,47.52
